createdAt,value
2023-05-17T00:04:10.143Z,97799.69
2023-05-17T00:09:13.399Z,97798.22
2023-05-17T00:14:16.614Z,97791.88
2023-05-17T00:19:21.366Z,97794.94
2023-05-17T00:24:24.777Z,97803.06
2023-05-17T00:29:28.191Z,97804.78
2023-05-17T00:34:32.798Z,97803.94
2023-05-17T00:39:36.203Z,97804.66
2023-05-17T00:44:40.939Z,97811.38
2023-05-17T00:49:46.253Z,97807.44
2023-05-17T00:54:49.537Z,97807.69
2023-05-17T00:59:55.500Z,97813.69
2023-05-17T01:05:01.847Z,97811.84
2023-05-17T01:10:06.143Z,97808.06
2023-05-17T01:15:15.248Z,97816.03
2023-05-17T01:20:23.583Z,97829.22
2023-05-17T01:25:42.558Z,97823.28
2023-05-17T01:30:47.697Z,97828.38
2023-05-17T01:35:50.993Z,97836.56
2023-05-17T01:40:58.241Z,97836.13
2023-05-17T01:46:09.059Z,97840.34
2023-05-17T01:51:13.227Z,97840.75
2023-05-17T01:56:20.325Z,97842.91
2023-05-17T02:01:25.943Z,97841.50
2023-05-17T02:06:29.197Z,97848.31
2023-05-17T02:11:32.431Z,97850.41
2023-05-17T02:16:37.105Z,97854.34
2023-05-17T02:21:40.403Z,97855.41
2023-05-17T02:26:43.713Z,97863.09
2023-05-17T02:31:48.537Z,97859.31
2023-05-17T02:36:53.629Z,97856.72
2023-05-17T02:41:57.395Z,97858.47
2023-05-17T02:47:02.089Z,97864.94
2023-05-17T02:52:06.848Z,97874.56
2023-05-17T02:57:10.410Z,97875.75
2023-05-17T03:02:15.110Z,97872.16
2023-05-17T03:07:18.333Z,97875.69
2023-05-17T03:12:21.870Z,97868.16
2023-05-17T03:17:26.867Z,97871.94
2023-05-17T03:22:30.273Z,97875.84
2023-05-17T03:27:35.604Z,97870.69
2023-05-17T03:32:41.365Z,97875.44
2023-05-17T03:37:44.900Z,97885.91
2023-05-17T03:42:48.747Z,97877.53
2023-05-17T03:47:53.629Z,97882.31
2023-05-17T03:52:57.187Z,97888.63
2023-05-17T03:58:02.114Z,97888.97
2023-05-17T04:03:07.836Z,97888.81
2023-05-17T04:08:11.264Z,97903.66
2023-05-17T04:13:15.043Z,97887.91
2023-05-17T04:18:20.026Z,97911.59
2023-05-17T04:23:23.414Z,97905.59
2023-05-17T04:28:27.546Z,97920.19
2023-05-17T04:33:33.339Z,97919.81
2023-05-17T04:38:37.002Z,97913.34
2023-05-17T04:43:42.227Z,97910.53
2023-05-17T04:48:53.910Z,97918.06
2023-05-17T04:53:58.524Z,97917.44
2023-05-17T04:59:02.810Z,97917.53
2023-05-17T05:04:08.340Z,97922.06
2023-05-17T05:09:16.855Z,97926.94
2023-05-17T05:14:21.224Z,97927.69
2023-05-17T05:19:26.987Z,97938.84
2023-05-17T05:24:31.633Z,97931.00
2023-05-17T05:29:34.955Z,97951.50
2023-05-17T05:34:39.726Z,97965.22
2023-05-17T05:39:43.064Z,97958.66
2023-05-17T05:44:46.315Z,97964.69
2023-05-17T05:49:52.616Z,97967.53
2023-05-17T05:54:55.992Z,97968.78
2023-05-17T05:59:59.648Z,97976.63
2023-05-17T06:05:05.008Z,97988.34
2023-05-17T06:10:09.408Z,97998.84
2023-05-17T06:15:13.121Z,98012.94
2023-05-17T06:20:17.945Z,98006.63
2023-05-17T06:25:21.238Z,98002.69
2023-05-17T06:30:25.213Z,98014.34
2023-05-17T06:35:35.326Z,98017.97
2023-05-17T06:40:47.421Z,98022.28
2023-05-17T06:45:50.879Z,98020.41
2023-05-17T06:50:57.642Z,98025.41
2023-05-17T06:56:00.939Z,98021.56
2023-05-17T07:01:04.386Z,98037.22
2023-05-17T07:06:09.673Z,98036.34
2023-05-17T07:11:13.129Z,98035.22
2023-05-17T07:16:16.501Z,98034.97
2023-05-17T07:21:21.100Z,98042.25
2023-05-17T07:26:24.445Z,98045.72
2023-05-17T07:31:27.959Z,98051.22
2023-05-17T07:36:32.892Z,98045.19
2023-05-17T07:41:36.236Z,98045.06
2023-05-17T07:46:39.829Z,98040.97
2023-05-17T07:51:44.564Z,98041.72
2023-05-17T07:56:48.049Z,98052.41
2023-05-17T08:01:51.673Z,98049.59
2023-05-17T08:06:56.563Z,98055.28
2023-05-17T08:12:00.039Z,98053.84
2023-05-17T08:17:03.491Z,98052.03
2023-05-17T08:22:08.322Z,98057.09
2023-05-17T08:27:12.173Z,98046.78
2023-05-17T08:32:15.613Z,98046.94
2023-05-17T08:37:20.730Z,98038.19
2023-05-17T08:42:25.387Z,98041.66
2023-05-17T08:47:33.993Z,98036.69
2023-05-17T08:52:38.950Z,98039.59
2023-05-17T08:57:42.563Z,98041.56
2023-05-17T09:02:46.034Z,98041.00
2023-05-17T09:07:51.425Z,98052.38
2023-05-17T09:12:54.892Z,98053.69
2023-05-17T09:17:58.973Z,98057.41
2023-05-17T09:23:05.055Z,98069.34
2023-05-17T09:28:08.954Z,98066.41
2023-05-17T09:33:14.178Z,98075.06
2023-05-17T09:38:27.401Z,98075.38
2023-05-17T09:43:31.918Z,98073.94
2023-05-17T09:48:39.640Z,98064.78
2023-05-17T09:53:44.695Z,98067.53
2023-05-17T09:58:50.882Z,98061.56
2023-05-17T10:03:54.979Z,98057.59
2023-05-17T10:09:00.270Z,98088.06
2023-05-17T10:14:11.261Z,98090.00
2023-05-17T10:19:15.036Z,98083.50
2023-05-17T10:24:21.594Z,98089.41
2023-05-17T10:29:26.406Z,98069.50
2023-05-17T10:34:30.979Z,98088.38
2023-05-17T10:39:38.834Z,98098.38
2023-05-17T10:44:42.538Z,98093.47
2023-05-17T10:49:48.140Z,98087.56
2023-05-17T10:54:54.143Z,98086.41
2023-05-17T11:00:00.155Z,98072.44
2023-05-17T11:05:03.800Z,98081.66
2023-05-17T11:10:13.012Z,98088.09
2023-05-17T11:15:17.431Z,98091.59
2023-05-17T11:20:38.965Z,98090.31
2023-05-17T11:25:43.972Z,98089.25
2023-05-17T11:30:51.928Z,98085.75
2023-05-17T11:35:56.032Z,98087.34
2023-05-17T11:41:26.033Z,98078.19
2023-05-17T11:46:30.623Z,98088.63
2023-05-17T11:51:34.052Z,98073.69
2023-05-17T11:56:43.727Z,98077.66
2023-05-17T12:01:48.870Z,98076.09
2023-05-17T12:06:53.053Z,98049.38
2023-05-17T12:11:59.988Z,98053.25
2023-05-17T12:17:05.059Z,98056.31
2023-05-17T12:22:12.670Z,98080.22
2023-05-17T12:27:26.417Z,98063.50
2023-05-17T12:32:29.807Z,98069.88
2023-05-17T12:37:33.260Z,98061.31
2023-05-17T12:42:40.891Z,98063.78
2023-05-17T12:47:44.948Z,98056.41
2023-05-17T12:52:49.680Z,98054.88
2023-05-17T12:57:54.965Z,98041.41
2023-05-17T13:02:58.554Z,98046.34
2023-05-17T13:08:23.042Z,98028.22
2023-05-17T13:13:27.923Z,98055.09
2023-05-17T13:18:35.617Z,98059.38
2023-05-17T13:23:44.106Z,98046.03
2023-05-17T13:28:49.845Z,98038.75
2023-05-17T13:33:53.322Z,98030.78
2023-05-17T13:38:57.457Z,98052.22
2023-05-17T13:44:02.266Z,98028.22
2023-05-17T13:49:07.853Z,98050.84
2023-05-17T13:54:11.745Z,98041.28
2023-05-17T13:59:16.467Z,98043.09
2023-05-17T14:04:20.008Z,98048.44
2023-05-17T14:09:23.532Z,98044.19
2023-05-17T14:14:29.055Z,98055.91
2023-05-17T14:19:32.677Z,98049.09
2023-05-17T14:24:36.404Z,98061.38
2023-05-17T14:29:41.295Z,98065.13
2023-05-17T14:34:44.933Z,98062.19
2023-05-17T14:40:05.224Z,98066.91
2023-05-17T14:45:11.458Z,98072.84
2023-05-17T14:50:14.815Z,98068.28
2023-05-17T14:55:18.215Z,98072.47
2023-05-17T15:00:23.373Z,98083.81
2023-05-17T15:05:26.753Z,98085.09
2023-05-17T15:10:30.275Z,98091.06
2023-05-17T15:15:35.620Z,98087.38
2023-05-17T15:20:39.354Z,98090.41
2023-05-17T15:25:42.817Z,98099.41
2023-05-17T15:30:47.479Z,98078.19
2023-05-17T15:35:52.069Z,98073.16
2023-05-17T15:41:04.977Z,98076.09
2023-05-17T15:46:09.836Z,98066.69
2023-05-17T15:51:13.481Z,98079.06
2023-05-17T15:56:17.613Z,98076.09
2023-05-17T16:01:22.355Z,98074.97
2023-05-17T16:06:25.622Z,98076.50
2023-05-17T16:11:29.008Z,98092.59
2023-05-17T16:16:33.729Z,98096.03
2023-05-17T16:21:37.199Z,98102.69
2023-05-17T16:26:40.704Z,98101.88
2023-05-17T16:31:45.807Z,98103.69
2023-05-17T16:36:50.565Z,98105.09
2023-05-17T16:41:55.127Z,98117.84
2023-05-17T16:46:59.971Z,98106.94
2023-05-17T16:52:03.390Z,98097.94
2023-05-17T16:57:08.493Z,98114.13
2023-05-17T17:02:13.702Z,98116.72
2023-05-17T17:07:17.079Z,98124.19
2023-05-17T17:12:25.161Z,98116.38
2023-05-17T17:17:30.560Z,98113.91
2023-05-17T17:22:34.035Z,98112.38
2023-05-17T17:27:37.329Z,98116.59
2023-05-17T17:32:42.152Z,98121.72
2023-05-17T17:37:45.524Z,98104.78
2023-05-17T17:42:48.858Z,98111.72
2023-05-17T17:47:53.685Z,98112.03
2023-05-17T17:52:57.198Z,98125.84
2023-05-17T17:58:00.630Z,98127.56
2023-05-17T18:03:05.935Z,98122.97
2023-05-17T18:08:09.471Z,98127.03
2023-05-17T18:13:12.914Z,98130.19
2023-05-17T18:18:17.552Z,98138.66
2023-05-17T18:23:21.170Z,98139.88
2023-05-17T18:28:33.755Z,98149.63
2023-05-17T18:33:46.381Z,98149.53
2023-05-17T18:38:50.148Z,98155.47
2023-05-17T18:43:53.669Z,98164.56
2023-05-17T18:49:01.639Z,98167.22
2023-05-17T18:54:05.075Z,98164.28
2023-05-17T18:59:08.420Z,98168.56
2023-05-17T19:04:14.258Z,98181.97
2023-05-17T19:09:17.447Z,98184.59
2023-05-17T19:14:21.270Z,98189.78
2023-05-17T19:19:26.246Z,98203.50
2023-05-17T19:24:29.655Z,98210.59
2023-05-17T19:29:33.215Z,98209.75
2023-05-17T19:34:37.762Z,98222.66
2023-05-17T19:39:41.226Z,98228.44
2023-05-17T19:44:44.753Z,98234.50
2023-05-17T19:49:50.184Z,98233.53
2023-05-17T19:54:53.553Z,98237.06
2023-05-17T19:59:57.234Z,98237.84
2023-05-17T20:05:05.869Z,98244.56
2023-05-17T20:10:12.643Z,98242.84
2023-05-17T20:15:15.990Z,98262.69
2023-05-17T20:20:21.129Z,98255.91
2023-05-17T20:25:24.744Z,98255.16
2023-05-17T20:30:28.440Z,98252.84
2023-05-17T20:35:33.651Z,98267.63
2023-05-17T20:40:37.499Z,98259.22
2023-05-17T20:45:43.263Z,98264.66
2023-05-17T20:50:49.148Z,98261.91
2023-05-17T20:55:53.469Z,98266.09
2023-05-17T21:00:56.983Z,98263.22
2023-05-17T21:06:02.171Z,98271.47
2023-05-17T21:11:05.708Z,98274.25
2023-05-17T21:16:09.518Z,98277.41
2023-05-17T21:21:14.359Z,98281.97
2023-05-17T21:26:17.702Z,98277.63
2023-05-17T21:31:21.572Z,98294.13
2023-05-17T21:36:26.558Z,98299.81
2023-05-17T21:41:29.998Z,98291.41
2023-05-17T21:46:33.666Z,98293.28
2023-05-17T21:51:38.977Z,98295.38
2023-05-17T21:56:42.742Z,98295.41
2023-05-17T22:01:46.346Z,98291.94
2023-05-17T22:06:51.171Z,98291.72
2023-05-17T22:11:58.144Z,98304.72
2023-05-17T22:17:01.609Z,98306.78
2023-05-17T22:22:06.614Z,98307.38
2023-05-17T22:27:10.223Z,98307.34
2023-05-17T22:32:13.800Z,98302.53
2023-05-17T22:37:22.769Z,98300.63
2023-05-17T22:42:26.173Z,98303.09
2023-05-17T22:47:29.535Z,98323.88
2023-05-17T22:52:34.489Z,98312.47
2023-05-17T22:57:37.865Z,98315.59
2023-05-17T23:02:41.336Z,98320.09
2023-05-17T23:07:47.633Z,98323.03
2023-05-17T23:12:52.321Z,98323.81
2023-05-17T23:17:59.698Z,98321.72
2023-05-17T23:23:04.533Z,98317.28
2023-05-17T23:28:08.438Z,98314.97
2023-05-17T23:33:12.500Z,98317.56
2023-05-17T23:38:17.213Z,98317.28
2023-05-17T23:43:20.473Z,98323.66
2023-05-17T23:48:25.713Z,98323.19
2023-05-17T23:53:30.393Z,98324.06
2023-05-17T23:58:33.583Z,98327.47
